createdAt,value
2022-10-12T00:00:39.393Z,115.80
2022-10-12T00:03:28.401Z,105.53
2022-10-12T00:06:04.681Z,112.43
2022-10-12T00:08:33.393Z,127.07
2022-10-12T00:11:01.841Z,125.30
2022-10-12T00:13:30.137Z,114.30
2022-10-12T00:15:58.058Z,277.38
2022-10-12T00:18:26.030Z,233.32
2022-10-12T00:21:03.396Z,233.07
2022-10-12T00:23:31.864Z,535.85
2022-10-12T00:26:03.538Z,176.70
2022-10-12T00:28:31.627Z,199.73
2022-10-12T00:30:59.768Z,353.52
2022-10-12T00:33:28.701Z,293.80
2022-10-12T00:35:56.963Z,406.40
2022-10-12T00:38:26.656Z,228.85
2022-10-12T00:40:54.379Z,91.07
2022-10-12T00:43:31.621Z,359.15
2022-10-12T00:46:02.448Z,441.13
2022-10-12T00:48:30.716Z,472.80
2022-10-12T00:51:01.141Z,316.85
2022-10-12T00:53:36.433Z,347.98
2022-10-12T00:56:07.725Z,381.15
2022-10-12T00:58:35.657Z,113.85
2022-10-12T01:01:04.631Z,94.15
2022-10-12T01:03:33.251Z,88.65
2022-10-12T01:06:01.980Z,81.45
2022-10-12T01:08:31.378Z,77.20
2022-10-12T01:10:59.323Z,90.13
2022-10-12T01:13:27.902Z,90.60
2022-10-12T01:16:04.521Z,84.03
2022-10-12T01:18:37.137Z,81.07
2022-10-12T01:24:06.517Z,87.85
2022-10-12T01:26:55.821Z,86.75
2022-10-12T01:29:38.316Z,79.28
2022-10-12T01:34:45.346Z,90.07
2022-10-12T01:37:18.806Z,261.52
2022-10-12T01:39:51.069Z,125.25
2022-10-12T01:42:24.600Z,86.63
2022-10-12T01:44:52.511Z,138.38
2022-10-12T01:47:21.997Z,185.98
2022-10-12T01:49:49.766Z,176.55
2022-10-12T01:52:27.231Z,222.20
2022-10-12T01:55:07.315Z,234.52
2022-10-12T01:57:47.062Z,180.85
2022-10-12T02:00:16.650Z,186.15
2022-10-12T02:03:01.106Z,198.57
2022-10-12T02:05:36.848Z,174.43
2022-10-12T02:08:10.251Z,145.38
2022-10-12T02:10:43.394Z,162.13
2022-10-12T02:13:14.792Z,70.85
2022-10-12T02:15:44.745Z,151.37
2022-10-12T02:18:18.616Z,91.22
2022-10-12T02:20:48.764Z,175.55
2022-10-12T02:23:19.653Z,201.73
2022-10-12T02:25:48.220Z,261.25
2022-10-12T02:28:19.420Z,99.38
2022-10-12T02:30:54.389Z,205.13
2022-10-12T02:33:28.202Z,96.32
2022-10-12T02:36:01.432Z,101.90
2022-10-12T02:38:33.789Z,147.65
2022-10-12T02:41:06.549Z,149.93
2022-10-12T02:43:38.413Z,124.88
2022-10-12T02:46:10.311Z,107.88
2022-10-12T02:48:41.689Z,117.40
2022-10-12T02:51:12.220Z,101.72
2022-10-12T02:53:40.274Z,127.72
2022-10-12T02:56:12.382Z,122.97
2022-10-12T03:01:08.332Z,67.22
2022-10-12T03:03:36.215Z,108.15
2022-10-12T03:06:05.976Z,181.88
2022-10-12T03:08:33.700Z,191.18
2022-10-12T03:11:03.329Z,216.90
2022-10-12T03:13:31.816Z,209.80
2022-10-12T03:16:03.513Z,78.55
2022-10-12T03:18:32.550Z,101.30
2022-10-12T03:21:00.961Z,102.65
2022-10-12T03:23:30.182Z,75.10
2022-10-12T03:25:57.998Z,67.90
2022-10-12T03:28:26.278Z,81.22
2022-10-12T03:30:54.065Z,131.02
2022-10-12T03:33:22.452Z,81.68
2022-10-12T03:35:51.069Z,149.35
2022-10-12T03:38:19.838Z,241.50
2022-10-12T03:40:49.049Z,83.60
2022-10-12T03:43:17.204Z,89.00
2022-10-12T03:45:45.315Z,97.72
2022-10-12T03:48:13.096Z,134.65
2022-10-12T03:50:41.173Z,191.40
2022-10-12T03:53:09.097Z,107.90
2022-10-12T03:55:37.022Z,76.68
2022-10-12T03:58:06.224Z,199.80
2022-10-12T04:00:34.197Z,128.65
2022-10-12T04:03:02.477Z,212.88
2022-10-12T04:05:30.961Z,74.00
2022-10-12T04:07:59.598Z,100.90
2022-10-12T04:10:27.321Z,68.07
2022-10-12T04:12:55.142Z,176.88
2022-10-12T04:15:24.540Z,134.27
2022-10-12T04:17:52.269Z,64.57
2022-10-12T04:20:20.191Z,62.97
2022-10-12T04:22:48.759Z,62.35
2022-10-12T04:25:16.708Z,57.22
2022-10-12T04:27:44.609Z,242.35
2022-10-12T04:30:13.286Z,274.80
2022-10-12T04:32:42.437Z,233.65
2022-10-12T04:35:11.366Z,57.97
2022-10-12T04:37:39.391Z,60.90
2022-10-12T04:40:08.755Z,85.72
2022-10-12T04:42:36.573Z,50.88
2022-10-12T04:45:05.233Z,51.15
2022-10-12T04:47:35.056Z,52.53
2022-10-12T04:50:05.435Z,51.85
2022-10-12T04:52:33.357Z,51.38
2022-10-12T04:55:01.282Z,46.28
2022-10-12T04:57:29.609Z,53.97
2022-10-12T04:59:57.500Z,64.78
2022-10-12T05:02:25.380Z,59.55
2022-10-12T05:04:53.263Z,58.30
2022-10-12T05:07:22.502Z,48.60
2022-10-12T05:09:50.418Z,45.90
2022-10-12T05:12:18.465Z,42.08
2022-10-12T05:14:46.164Z,38.33
2022-10-12T05:17:14.134Z,46.92
2022-10-12T05:19:42.005Z,45.53
2022-10-12T05:22:09.888Z,43.22
2022-10-12T05:24:38.965Z,43.00
2022-10-12T05:27:06.998Z,43.45
2022-10-12T05:29:34.718Z,41.25
2022-10-12T05:32:02.828Z,42.28
2022-10-12T05:34:30.836Z,39.50
2022-10-12T05:36:59.191Z,44.88
2022-10-12T05:39:26.890Z,39.63
2022-10-12T05:41:56.440Z,43.22
2022-10-12T05:44:24.162Z,43.88
2022-10-12T05:46:52.601Z,42.85
2022-10-12T05:49:20.593Z,39.88
2022-10-12T05:51:49.009Z,40.53
2022-10-12T05:54:16.748Z,38.10
2022-10-12T05:56:44.891Z,38.55
2022-10-12T05:59:14.349Z,35.72
2022-10-12T06:01:42.274Z,35.83
2022-10-12T06:04:10.888Z,37.92
2022-10-12T06:06:39.047Z,41.05
2022-10-12T06:09:07.022Z,36.88
2022-10-12T06:11:36.497Z,34.15
2022-10-12T06:14:04.941Z,39.47
2022-10-12T06:16:34.385Z,35.42
2022-10-12T06:19:02.202Z,35.10
2022-10-12T06:21:34.248Z,31.42
2022-10-12T06:24:02.999Z,31.92
2022-10-12T06:26:31.918Z,37.45
2022-10-12T06:29:00.756Z,35.95
2022-10-12T06:31:29.100Z,29.33
2022-10-12T06:33:58.361Z,30.27
2022-10-12T06:36:26.651Z,49.05
2022-10-12T06:38:54.393Z,31.83
2022-10-12T06:41:22.428Z,30.55
2022-10-12T06:43:50.105Z,28.95
2022-10-12T06:46:18.338Z,25.88
2022-10-12T06:48:46.234Z,31.48
2022-10-12T06:51:15.541Z,32.20
2022-10-12T06:53:43.441Z,33.58
2022-10-12T06:56:12.765Z,31.42
2022-10-12T06:58:40.887Z,30.35
2022-10-12T07:01:10.923Z,28.42
2022-10-12T07:03:38.896Z,27.88
2022-10-12T07:06:09.109Z,30.45
2022-10-12T07:08:38.459Z,26.20
2022-10-12T07:11:09.339Z,23.00
2022-10-12T07:13:37.319Z,31.85
2022-10-12T07:16:05.813Z,28.38
2022-10-12T07:18:34.881Z,27.58
2022-10-12T07:21:02.877Z,29.85
2022-10-12T07:23:32.233Z,35.15
2022-10-12T07:26:02.297Z,31.75
2022-10-12T07:28:30.383Z,29.23
2022-10-12T07:31:01.769Z,27.48
2022-10-12T07:33:32.418Z,31.52
2022-10-12T07:36:13.798Z,28.88
2022-10-12T07:38:45.034Z,26.05
2022-10-12T07:41:14.915Z,30.15
2022-10-12T07:43:43.603Z,34.17
2022-10-12T07:46:12.265Z,29.77
2022-10-12T07:48:44.507Z,27.67
2022-10-12T07:51:17.227Z,25.00
2022-10-12T07:53:44.931Z,32.13
2022-10-12T07:56:16.104Z,34.67
2022-10-12T07:58:44.456Z,33.30
2022-10-12T08:01:12.643Z,36.28
2022-10-12T08:03:40.493Z,34.75
2022-10-12T08:06:13.485Z,38.58
2022-10-12T08:08:41.649Z,39.13
2022-10-12T08:11:10.025Z,38.63
2022-10-12T08:13:40.094Z,43.30
2022-10-12T08:16:11.821Z,47.83
2022-10-12T08:18:40.135Z,45.70
2022-10-12T08:21:09.977Z,52.10
2022-10-12T08:23:38.167Z,60.00
2022-10-12T08:26:07.246Z,53.65
2022-10-12T08:28:35.607Z,57.20
2022-10-12T08:31:09.094Z,68.28
2022-10-12T08:33:37.209Z,91.32
2022-10-12T08:36:07.623Z,113.25
2022-10-12T08:38:38.484Z,64.47
2022-10-12T08:41:19.943Z,255.68
2022-10-12T08:44:06.692Z,119.45
2022-10-12T08:46:36.368Z,340.20
2022-10-12T08:49:07.866Z,194.05
2022-10-12T08:56:41.272Z,89.68
2022-10-12T08:59:13.457Z,97.88
2022-10-12T09:04:34.774Z,61.83
2022-10-12T09:07:12.919Z,58.00
2022-10-12T09:09:53.875Z,67.50
2022-10-12T09:12:37.114Z,67.07
2022-10-12T09:15:14.517Z,57.42
2022-10-12T09:17:48.497Z,62.75
2022-10-12T09:20:22.034Z,58.03
2022-10-12T09:22:51.798Z,54.83
2022-10-12T09:25:26.740Z,55.20
2022-10-12T09:27:58.389Z,50.60
2022-10-12T09:30:26.294Z,50.33
2022-10-12T09:33:20.589Z,63.42
2022-10-12T09:35:50.977Z,67.63
2022-10-12T09:38:18.830Z,66.00
2022-10-12T09:40:47.400Z,60.00
2022-10-12T09:43:15.949Z,61.65
2022-10-12T09:45:43.722Z,56.67
2022-10-12T09:48:15.131Z,58.30
2022-10-12T09:50:48.662Z,57.33
2022-10-12T09:53:24.877Z,65.30
2022-10-12T09:55:54.951Z,70.38
2022-10-12T09:58:23.680Z,67.13
2022-10-12T10:01:21.732Z,74.75
2022-10-12T10:03:52.903Z,71.72
2022-10-12T10:06:26.145Z,83.80
2022-10-12T10:08:56.489Z,89.32
2022-10-12T10:11:31.018Z,79.72
2022-10-12T10:14:01.266Z,88.97
2022-10-12T10:16:31.750Z,88.18
2022-10-12T10:19:01.610Z,82.38
2022-10-12T10:21:34.597Z,70.45
2022-10-12T10:24:04.426Z,58.67
2022-10-12T10:26:53.068Z,56.53
2022-10-12T10:29:31.876Z,32.42
2022-10-12T10:32:23.982Z,44.20
2022-10-12T10:35:02.697Z,49.80
2022-10-12T10:37:33.816Z,31.38
2022-10-12T10:40:03.187Z,21.90
2022-10-12T10:42:33.442Z,21.63
2022-10-12T10:45:03.697Z,17.98
2022-10-12T10:47:33.909Z,22.98
2022-10-12T10:50:03.953Z,18.33
2022-10-12T10:52:36.356Z,25.23
2022-10-12T10:55:17.788Z,16.88
2022-10-12T10:57:51.187Z,22.77
2022-10-12T11:00:39.733Z,14.77
2022-10-12T11:03:15.500Z,15.15
2022-10-12T11:05:47.649Z,13.60
2022-10-12T11:10:53.756Z,18.75
2022-10-12T11:13:25.339Z,16.80
2022-10-12T11:15:57.966Z,10.80
2022-10-12T11:18:32.251Z,9.40
2022-10-12T11:21:05.301Z,11.13
2022-10-12T11:23:44.411Z,13.93
2022-10-12T11:26:25.315Z,8.35
2022-10-12T11:28:55.852Z,10.65
2022-10-12T11:31:27.450Z,9.50
2022-10-12T11:34:00.735Z,10.27
2022-10-12T11:36:31.784Z,8.80
2022-10-12T11:39:07.177Z,10.70
2022-10-12T11:42:03.105Z,11.43
2022-10-12T11:44:41.653Z,12.05
2022-10-12T11:47:17.024Z,18.15
2022-10-12T11:49:52.605Z,9.82
2022-10-12T11:52:25.094Z,10.68
2022-10-12T11:55:07.046Z,13.20
2022-10-12T11:57:38.762Z,12.68
2022-10-12T12:00:18.127Z,9.73
2022-10-12T12:02:51.985Z,8.20
2022-10-12T12:05:20.045Z,13.23
2022-10-12T12:07:50.000Z,9.45
2022-10-12T12:10:54.501Z,9.73
2022-10-12T12:13:27.012Z,10.30
2022-10-12T12:16:31.928Z,10.95
2022-10-12T12:19:31.650Z,10.45
2022-10-12T12:22:20.467Z,12.02
2022-10-12T12:24:55.349Z,17.75
2022-10-12T12:27:31.521Z,11.20
2022-10-12T12:30:01.480Z,8.48
2022-10-12T12:32:43.333Z,7.75
2022-10-12T12:37:48.297Z,10.32
2022-10-12T12:40:22.569Z,9.13
2022-10-12T12:42:51.665Z,19.00
2022-10-12T12:45:41.082Z,64.97
2022-10-12T12:48:11.395Z,14.05
2022-10-12T12:50:41.685Z,8.13
2022-10-12T12:53:18.533Z,9.75
2022-10-12T12:56:03.513Z,13.02
2022-10-12T12:58:55.458Z,15.02
2022-10-12T13:01:44.522Z,30.88
2022-10-12T13:04:43.719Z,57.90
2022-10-12T13:07:35.653Z,31.05
2022-10-12T13:10:23.760Z,159.85
2022-10-12T13:13:20.375Z,35.78
2022-10-12T13:16:02.944Z,6.53
2022-10-12T13:18:49.486Z,11.32
2022-10-12T13:21:21.126Z,11.13
2022-10-12T13:23:52.019Z,8.60
2022-10-12T13:26:24.981Z,8.20
2022-10-12T13:28:54.783Z,8.75
2022-10-12T13:31:28.789Z,7.40
2022-10-12T13:34:06.793Z,9.80
2022-10-12T13:36:47.545Z,7.75
2022-10-12T13:39:17.042Z,9.35
2022-10-12T13:41:45.901Z,6.18
2022-10-12T13:44:22.721Z,9.75
2022-10-12T13:46:54.849Z,7.70
2022-10-12T13:51:53.714Z,7.72
2022-10-12T13:54:25.106Z,6.70
2022-10-12T13:56:57.271Z,7.72
2022-10-12T13:59:27.101Z,10.27
2022-10-12T14:02:00.556Z,10.23
2022-10-12T14:04:30.077Z,7.32
2022-10-12T14:07:02.525Z,8.82
2022-10-12T14:09:40.333Z,11.35
2022-10-12T14:12:09.988Z,12.65
2022-10-12T14:14:39.740Z,10.45
2022-10-12T14:17:14.630Z,9.27
2022-10-12T14:19:47.926Z,8.70
2022-10-12T14:22:22.516Z,14.05
2022-10-12T14:24:51.957Z,9.60
2022-10-12T14:27:25.513Z,10.43
2022-10-12T14:30:04.636Z,15.50
2022-10-12T14:32:44.297Z,13.95
2022-10-12T14:35:26.830Z,19.35
2022-10-12T14:37:55.939Z,14.48
2022-10-12T14:40:36.086Z,18.02
2022-10-12T14:43:09.385Z,9.88
2022-10-12T14:45:37.476Z,7.70
2022-10-12T14:48:14.900Z,9.48
2022-10-12T14:50:44.780Z,9.25
2022-10-12T14:53:14.691Z,5.80
2022-10-12T14:55:44.105Z,8.80
2022-10-12T14:58:16.045Z,10.45
2022-10-12T15:03:13.749Z,10.10
2022-10-12T15:05:41.971Z,8.93
2022-10-12T15:08:10.431Z,5.65
2022-10-12T15:10:38.640Z,9.60
2022-10-12T15:13:06.583Z,11.00
2022-10-12T15:15:39.389Z,12.65
2022-10-12T15:18:07.757Z,8.93
2022-10-12T15:20:37.827Z,12.80
2022-10-12T15:23:06.405Z,15.63
2022-10-12T15:25:43.475Z,10.20
2022-10-12T15:28:11.608Z,8.20
2022-10-12T15:31:04.115Z,13.70
2022-10-12T15:33:27.574Z,12.93
2022-10-12T15:35:57.216Z,11.52
2022-10-12T15:38:25.552Z,11.88
2022-10-12T15:40:56.419Z,13.82
2022-10-12T15:43:24.272Z,33.47
2022-10-12T15:45:52.431Z,48.40
2022-10-12T15:48:20.218Z,24.50
2022-10-12T15:50:50.276Z,19.67
2022-10-12T15:53:22.259Z,26.90
2022-10-12T15:55:50.610Z,24.65
2022-10-12T15:58:18.405Z,20.17
2022-10-12T16:00:46.466Z,27.42
2022-10-12T16:03:18.206Z,23.13
2022-10-12T16:05:49.277Z,29.77
2022-10-12T16:08:17.168Z,26.40
2022-10-12T16:10:47.698Z,25.48
2022-10-12T16:13:16.650Z,21.50
2022-10-12T16:15:44.769Z,19.83
2022-10-12T16:18:15.384Z,17.38
2022-10-12T16:20:46.702Z,18.20
2022-10-12T16:23:22.889Z,34.33
2022-10-12T16:25:52.089Z,19.42
2022-10-12T16:28:20.569Z,24.45
2022-10-12T16:30:49.963Z,17.65
2022-10-12T16:33:19.142Z,14.40
2022-10-12T16:35:47.161Z,16.45
2022-10-12T16:38:15.835Z,28.95
2022-10-12T16:40:43.816Z,16.73
2022-10-12T16:43:13.238Z,26.27
2022-10-12T16:45:41.046Z,20.20
2022-10-12T16:48:09.157Z,15.90
2022-10-12T16:50:40.751Z,17.15
2022-10-12T16:53:09.428Z,24.70
2022-10-12T16:55:39.538Z,21.17
2022-10-12T16:58:07.760Z,17.92
2022-10-12T17:00:37.010Z,21.70
2022-10-12T17:03:05.226Z,18.30
2022-10-12T17:05:33.331Z,23.52
2022-10-12T17:08:01.674Z,21.75
2022-10-12T17:10:29.649Z,20.38
2022-10-12T17:12:57.860Z,19.15
2022-10-12T17:15:25.617Z,19.35
2022-10-12T17:17:56.205Z,18.25
2022-10-12T17:20:24.060Z,18.63
2022-10-12T17:22:51.998Z,22.90
2022-10-12T17:25:19.765Z,27.05
2022-10-12T17:27:47.724Z,27.35
2022-10-12T17:30:15.440Z,34.08
2022-10-12T17:32:43.807Z,34.60
2022-10-12T17:35:13.221Z,38.00
2022-10-12T17:37:41.116Z,32.30
2022-10-12T17:40:10.598Z,21.60
2022-10-12T17:42:38.902Z,25.88
2022-10-12T17:45:07.555Z,20.45
2022-10-12T17:47:35.592Z,22.95
2022-10-12T17:50:03.420Z,26.90
2022-10-12T17:52:32.656Z,21.45
2022-10-12T17:55:01.145Z,21.42
2022-10-12T17:57:29.317Z,18.33
2022-10-12T17:59:57.369Z,22.42
2022-10-12T18:02:25.534Z,24.77
2022-10-12T18:04:53.582Z,29.17
2022-10-12T18:07:21.349Z,19.25
2022-10-12T18:09:50.640Z,21.42
2022-10-12T18:12:18.982Z,20.45
2022-10-12T18:14:47.209Z,26.10
2022-10-12T18:17:14.916Z,26.67
2022-10-12T18:19:43.015Z,26.67
2022-10-12T18:22:10.791Z,29.98
2022-10-12T18:24:39.899Z,31.13
2022-10-12T18:27:09.397Z,26.40
2022-10-12T18:29:37.117Z,32.13
2022-10-12T18:32:06.713Z,33.95
2022-10-12T18:34:36.746Z,48.60
2022-10-12T18:37:04.933Z,35.17
2022-10-12T18:39:34.343Z,32.97
2022-10-12T18:42:02.172Z,34.95
2022-10-12T18:44:31.453Z,41.42
2022-10-12T18:46:59.225Z,33.60
2022-10-12T18:49:27.214Z,34.67
2022-10-12T18:51:55.017Z,29.13
2022-10-12T18:54:23.210Z,29.33
2022-10-12T18:56:51.132Z,28.33
2022-10-12T18:59:20.250Z,34.25
2022-10-12T19:01:49.697Z,33.33
2022-10-12T19:04:17.683Z,37.47
2022-10-12T19:06:45.689Z,43.13
2022-10-12T19:09:14.530Z,35.08
2022-10-12T19:11:43.142Z,40.45
2022-10-12T19:14:14.676Z,37.75
2022-10-12T19:16:43.665Z,32.83
2022-10-12T19:19:20.518Z,36.15
2022-10-12T19:21:49.609Z,38.90
2022-10-12T19:24:18.920Z,42.83
2022-10-12T19:26:47.038Z,40.50
2022-10-12T19:29:15.949Z,37.25
2022-10-12T19:31:45.738Z,37.90
2022-10-12T19:34:18.026Z,46.90
2022-10-12T19:36:47.065Z,42.00
2022-10-12T19:39:16.956Z,39.85
2022-10-12T19:41:45.594Z,38.75
2022-10-12T19:44:14.582Z,44.90
2022-10-12T19:46:47.131Z,40.15
2022-10-12T19:49:18.948Z,32.58
2022-10-12T19:51:47.019Z,41.45
2022-10-12T19:54:16.151Z,42.58
2022-10-12T19:56:45.077Z,40.38
2022-10-12T19:59:13.033Z,43.75
2022-10-12T20:01:41.081Z,49.63
2022-10-12T20:04:11.950Z,53.45
2022-10-12T20:06:42.860Z,47.88
2022-10-12T20:09:11.578Z,54.90
2022-10-12T20:11:40.537Z,62.95
2022-10-12T20:14:08.549Z,54.60
2022-10-12T20:16:37.946Z,62.80
2022-10-12T20:19:07.040Z,66.28
2022-10-12T20:21:36.335Z,69.18
2022-10-12T20:24:05.977Z,62.17
2022-10-12T20:26:34.024Z,64.85
2022-10-12T20:29:02.589Z,67.78
2022-10-12T20:31:30.642Z,66.47
2022-10-12T20:33:58.672Z,65.57
2022-10-12T20:36:28.415Z,66.43
2022-10-12T20:38:57.631Z,74.40
2022-10-12T20:41:28.044Z,81.13
2022-10-12T20:43:57.198Z,67.95
2022-10-12T20:46:25.538Z,70.85
2022-10-12T20:48:58.736Z,84.10
2022-10-12T20:51:29.903Z,79.47
2022-10-12T20:53:59.208Z,70.10
2022-10-12T20:56:29.484Z,82.72
2022-10-12T20:58:57.862Z,87.32
2022-10-12T21:01:26.889Z,78.25
2022-10-12T21:03:55.789Z,82.78
2022-10-12T21:06:24.385Z,91.18
2022-10-12T21:08:54.309Z,83.15
2022-10-12T21:11:23.142Z,76.70
2022-10-12T21:13:53.212Z,82.75
2022-10-12T21:16:21.005Z,85.20
2022-10-12T21:18:49.248Z,89.20
2022-10-12T21:21:19.963Z,85.88
2022-10-12T21:23:53.252Z,85.07
2022-10-12T21:26:22.989Z,88.93
2022-10-12T21:28:52.208Z,82.72
2022-10-12T21:31:20.976Z,93.00
2022-10-12T21:33:49.249Z,97.40
2022-10-12T21:36:19.462Z,82.28
2022-10-12T21:38:48.365Z,88.53
2022-10-12T21:41:18.671Z,94.90
2022-10-12T21:43:48.269Z,94.07
2022-10-12T21:46:19.351Z,95.32
2022-10-12T21:48:47.983Z,85.47
2022-10-12T21:51:16.145Z,90.57
2022-10-12T21:53:43.908Z,87.50
2022-10-12T21:56:15.844Z,89.90
2022-10-12T21:58:43.800Z,98.45
2022-10-12T22:01:14.076Z,119.30
2022-10-12T22:03:44.642Z,120.15
2022-10-12T22:06:13.960Z,121.07
2022-10-12T22:08:41.821Z,105.25
2022-10-12T22:11:12.544Z,100.47
2022-10-12T22:13:41.797Z,97.65
2022-10-12T22:16:12.533Z,102.10
2022-10-12T22:18:40.656Z,103.00
2022-10-12T22:21:12.300Z,114.28
2022-10-12T22:23:41.197Z,110.65
2022-10-12T22:26:11.649Z,106.30
2022-10-12T22:28:39.701Z,109.88
2022-10-12T22:31:08.086Z,116.82
2022-10-12T22:33:36.252Z,106.85
2022-10-12T22:36:05.815Z,112.55
2022-10-12T22:38:36.093Z,116.10
2022-10-12T22:41:05.909Z,118.70
2022-10-12T22:43:34.967Z,104.57
2022-10-12T22:46:03.638Z,116.68
2022-10-12T22:48:31.830Z,110.97
2022-10-12T22:50:59.641Z,115.40
2022-10-12T22:53:27.618Z,113.65
2022-10-12T22:56:00.483Z,111.88
2022-10-12T22:58:28.864Z,115.13
2022-10-12T23:01:03.041Z,103.78
2022-10-12T23:03:31.730Z,117.95
2022-10-12T23:05:59.751Z,103.40
2022-10-12T23:08:28.308Z,103.18
2022-10-12T23:11:04.721Z,115.90
2022-10-12T23:13:32.899Z,112.35
2022-10-12T23:16:05.002Z,104.72
2022-10-12T23:18:33.377Z,114.53
2022-10-12T23:21:04.891Z,112.97
2022-10-12T23:23:34.109Z,106.63
2022-10-12T23:26:05.893Z,100.50
2022-10-12T23:28:35.028Z,97.10
2022-10-12T23:31:04.972Z,107.15
2022-10-12T23:33:33.122Z,114.35
2022-10-12T23:36:03.141Z,110.38
2022-10-12T23:38:32.591Z,108.03
2022-10-12T23:41:00.574Z,109.32
2022-10-12T23:43:29.992Z,108.55
2022-10-12T23:45:58.072Z,118.35
2022-10-12T23:48:26.545Z,111.03
2022-10-12T23:50:54.915Z,112.15
2022-10-12T23:53:24.241Z,103.13
2022-10-12T23:55:52.702Z,109.75
2022-10-12T23:58:20.973Z,109.15
